sensor_id;sensor_type;location;lat;lon;timestamp;pressure;altitude;pressure_sealevel;temperature;humidity
36692;BME280;22678;52.052;4.242;2023-01-27T00:01:02;102711.91;;;6.26;89.45
36692;BME280;22678;52.052;4.242;2023-01-27T00:03:28;102710.13;;;6.25;89.51
36692;BME280;22678;52.052;4.242;2023-01-27T00:05:53;102687.06;;;6.14;89.66
36692;BME280;22678;52.052;4.242;2023-01-27T00:08:18;102698.00;;;6.27;89.35
36692;BME280;22678;52.052;4.242;2023-01-27T00:10:44;102692.75;;;6.27;89.25
36692;BME280;22678;52.052;4.242;2023-01-27T00:13:13;102685.78;;;6.26;89.32
36692;BME280;22678;52.052;4.242;2023-01-27T00:15:51;102680.16;;;6.17;89.39
36692;BME280;22678;52.052;4.242;2023-01-27T00:18:16;102675.88;;;6.17;89.24
36692;BME280;22678;52.052;4.242;2023-01-27T00:20:42;102689.34;;;6.28;89.01
36692;BME280;22678;52.052;4.242;2023-01-27T00:23:26;102679.69;;;6.27;89.00
36692;BME280;22678;52.052;4.242;2023-01-27T00:26:12;102696.34;;;6.29;88.99
36692;BME280;22678;52.052;4.242;2023-01-27T00:28:39;102690.34;;;6.31;88.80
36692;BME280;22678;52.052;4.242;2023-01-27T00:31:06;102684.22;;;6.31;88.84
36692;BME280;22678;52.052;4.242;2023-01-27T00:33:33;102679.66;;;6.25;88.51
36692;BME280;22678;52.052;4.242;2023-01-27T00:36:05;102668.31;;;6.25;88.24
36692;BME280;22678;52.052;4.242;2023-01-27T00:38:34;102641.72;;;6.12;88.14
36692;BME280;22678;52.052;4.242;2023-01-27T00:41:05;102659.44;;;6.21;87.82
36692;BME280;22678;52.052;4.242;2023-01-27T00:43:47;102667.22;;;6.20;87.63
36692;BME280;22678;52.052;4.242;2023-01-27T00:46:13;102682.44;;;6.30;87.25
36692;BME280;22678;52.052;4.242;2023-01-27T00:48:39;102666.53;;;6.24;86.74
36692;BME280;22678;52.052;4.242;2023-01-27T00:51:04;102662.81;;;6.17;86.47
36692;BME280;22678;52.052;4.242;2023-01-27T00:53:30;102677.16;;;6.28;86.06
36692;BME280;22678;52.052;4.242;2023-01-27T00:55:55;102677.75;;;6.21;85.85
36692;BME280;22678;52.052;4.242;2023-01-27T00:58:25;102655.50;;;6.08;85.56
36692;BME280;22678;52.052;4.242;2023-01-27T01:00:55;102669.59;;;6.13;85.44
36692;BME280;22678;52.052;4.242;2023-01-27T01:03:21;102687.44;;;6.24;85.02
36692;BME280;22678;52.052;4.242;2023-01-27T01:05:47;102655.38;;;6.05;84.79
36692;BME280;22678;52.052;4.242;2023-01-27T01:08:12;102668.72;;;6.13;84.47
36692;BME280;22678;52.052;4.242;2023-01-27T01:10:37;102672.34;;;6.17;84.33
36692;BME280;22678;52.052;4.242;2023-01-27T01:13:04;102667.09;;;6.17;84.38
36692;BME280;22678;52.052;4.242;2023-01-27T01:15:35;102668.09;;;6.19;84.07
36692;BME280;22678;52.052;4.242;2023-01-27T01:18:01;102660.84;;;6.11;83.92
36692;BME280;22678;52.052;4.242;2023-01-27T01:20:26;102668.72;;;6.13;83.87
36692;BME280;22678;52.052;4.242;2023-01-27T01:22:51;102682.09;;;6.21;83.69
36692;BME280;22678;52.052;4.242;2023-01-27T01:25:17;102661.72;;;6.12;83.46
36692;BME280;22678;52.052;4.242;2023-01-27T01:27:43;102643.00;;;6.01;83.29
36692;BME280;22678;52.052;4.242;2023-01-27T01:30:10;102647.53;;;6.05;83.08
36692;BME280;22678;52.052;4.242;2023-01-27T01:32:36;102685.66;;;6.23;82.84
36692;BME280;22678;52.052;4.242;2023-01-27T01:35:01;102684.63;;;6.19;82.39
36692;BME280;22678;52.052;4.242;2023-01-27T01:37:27;102647.97;;;5.95;82.48
36692;BME280;22678;52.052;4.242;2023-01-27T01:39:52;102675.47;;;6.08;82.57
36692;BME280;22678;52.052;4.242;2023-01-27T01:42:17;102665.81;;;6.05;82.41
36692;BME280;22678;52.052;4.242;2023-01-27T01:44:43;102692.41;;;6.18;82.10
36692;BME280;22678;52.052;4.242;2023-01-27T01:47:16;102680.75;;;6.09;81.95
36692;BME280;22678;52.052;4.242;2023-01-27T01:49:43;102676.91;;;6.00;82.11
36692;BME280;22678;52.052;4.242;2023-01-27T01:52:15;102701.66;;;6.09;82.09
36692;BME280;22678;52.052;4.242;2023-01-27T01:55:00;102713.13;;;6.13;81.89
36692;BME280;22678;52.052;4.242;2023-01-27T01:57:29;102690.03;;;6.01;81.77
36692;BME280;22678;52.052;4.242;2023-01-27T02:00:02;102690.16;;;6.04;81.57
36692;BME280;22678;52.052;4.242;2023-01-27T02:02:29;102698.16;;;6.09;81.54
36692;BME280;22678;52.052;4.242;2023-01-27T02:05:02;102686.59;;;6.02;81.42
36692;BME280;22678;52.052;4.242;2023-01-27T02:07:53;102716.50;;;6.10;81.81
36692;BME280;22678;52.052;4.242;2023-01-27T02:10:21;102684.69;;;5.98;82.04
36692;BME280;22678;52.052;4.242;2023-01-27T02:12:46;102647.16;;;5.75;81.66
36692;BME280;22678;52.052;4.242;2023-01-27T02:15:12;102684.69;;;5.98;81.36
36692;BME280;22678;52.052;4.242;2023-01-27T02:17:37;102714.66;;;6.08;81.56
36692;BME280;22678;52.052;4.242;2023-01-27T02:20:30;102722.44;;;6.06;81.54
36692;BME280;22678;52.052;4.242;2023-01-27T02:29:03;102716.69;;;5.94;80.87
36692;BME280;22678;52.052;4.242;2023-01-27T02:31:28;102692.28;;;5.72;80.57
36692;BME280;22678;52.052;4.242;2023-01-27T02:34:02;102707.94;;;5.72;80.40
36692;BME280;22678;52.052;4.242;2023-01-27T02:36:32;102714.47;;;5.82;80.29
36692;BME280;22678;52.052;4.242;2023-01-27T02:39:00;102692.78;;;5.64;80.21
36692;BME280;22678;52.052;4.242;2023-01-27T02:41:30;102706.19;;;5.71;80.30
36692;BME280;22678;52.052;4.242;2023-01-27T02:43:58;102707.88;;;5.71;80.24
36692;BME280;22678;52.052;4.242;2023-01-27T02:46:24;102716.47;;;5.68;80.33
36692;BME280;22678;52.052;4.242;2023-01-27T02:48:49;102717.44;;;5.70;80.26
36692;BME280;22678;52.052;4.242;2023-01-27T02:51:15;102714.09;;;5.73;80.35
36692;BME280;22678;52.052;4.242;2023-01-27T02:53:40;102721.97;;;5.74;80.42
36692;BME280;22678;52.052;4.242;2023-01-27T02:56:06;102703.97;;;5.59;80.25
36692;BME280;22678;52.052;4.242;2023-01-27T02:58:31;102713.69;;;5.64;80.41
36692;BME280;22678;52.052;4.242;2023-01-27T03:00:57;102720.88;;;5.69;80.65
36692;BME280;22678;52.052;4.242;2023-01-27T03:03:23;102715.28;;;5.60;80.79
36692;BME280;22678;52.052;4.242;2023-01-27T03:05:48;102690.25;;;5.44;80.63
36692;BME280;22678;52.052;4.242;2023-01-27T03:08:16;102731.88;;;5.62;80.85
36692;BME280;22678;52.052;4.242;2023-01-27T03:10:42;102721.31;;;5.59;80.78
36692;BME280;22678;52.052;4.242;2023-01-27T03:13:07;102742.19;;;5.59;80.93
36692;BME280;22678;52.052;4.242;2023-01-27T03:15:32;102721.75;;;5.49;80.73
36692;BME280;22678;52.052;4.242;2023-01-27T03:18:16;102737.53;;;5.52;80.65
36692;BME280;22678;52.052;4.242;2023-01-27T03:20:45;102736.41;;;5.45;80.81
36692;BME280;22678;52.052;4.242;2023-01-27T03:23:11;102748.94;;;5.54;81.00
36692;BME280;22678;52.052;4.242;2023-01-27T03:25:42;102757.22;;;5.43;80.55
36692;BME280;22678;52.052;4.242;2023-01-27T03:28:08;102746.78;;;5.43;80.92
36692;BME280;22678;52.052;4.242;2023-01-27T03:30:33;102728.38;;;5.21;80.95
36692;BME280;22678;52.052;4.242;2023-01-27T03:32:58;102736.63;;;5.30;81.32
36692;BME280;22678;52.052;4.242;2023-01-27T03:35:24;102751.63;;;5.36;81.15
36692;BME280;22678;52.052;4.242;2023-01-27T03:37:59;102711.25;;;5.06;81.17
36692;BME280;22678;52.052;4.242;2023-01-27T03:40:44;102747.75;;;5.26;81.44
36692;BME280;22678;52.052;4.242;2023-01-27T03:43:28;102767.88;;;5.29;81.72
36692;BME280;22678;52.052;4.242;2023-01-27T03:46:11;102756.13;;;5.19;81.73
36692;BME280;22678;52.052;4.242;2023-01-27T03:48:55;102756.94;;;5.18;81.83
36692;BME280;22678;52.052;4.242;2023-01-27T03:51:23;102769.16;;;5.19;81.81
36692;BME280;22678;52.052;4.242;2023-01-27T03:53:49;102756.66;;;5.12;81.82
36692;BME280;22678;52.052;4.242;2023-01-27T03:56:15;102777.53;;;5.12;82.01
36692;BME280;22678;52.052;4.242;2023-01-27T03:58:42;102772.03;;;5.05;82.05
36692;BME280;22678;52.052;4.242;2023-01-27T04:01:14;102773.00;;;5.07;81.87
36692;BME280;22678;52.052;4.242;2023-01-27T04:03:40;102773.00;;;5.07;82.07
36692;BME280;22678;52.052;4.242;2023-01-27T04:06:29;102791.19;;;5.06;81.95
36692;BME280;22678;52.052;4.242;2023-01-27T04:09:21;102761.03;;;4.93;82.13
36692;BME280;22678;52.052;4.242;2023-01-27T04:11:47;102779.44;;;4.96;82.32
36692;BME280;22678;52.052;4.242;2023-01-27T04:14:19;102785.63;;;4.98;82.58
36692;BME280;22678;52.052;4.242;2023-01-27T04:16:45;102765.69;;;4.81;82.45
36692;BME280;22678;52.052;4.242;2023-01-27T04:19:11;102771.31;;;4.90;82.40
36692;BME280;22678;52.052;4.242;2023-01-27T04:21:37;102792.50;;;4.96;82.61
36692;BME280;22678;52.052;4.242;2023-01-27T04:24:03;102803.88;;;4.98;82.87
36692;BME280;22678;52.052;4.242;2023-01-27T04:26:29;102782.91;;;4.77;82.59
36692;BME280;22678;52.052;4.242;2023-01-27T04:29:02;102795.38;;;4.84;82.30
36692;BME280;22678;52.052;4.242;2023-01-27T04:31:28;102788.72;;;4.71;82.23
36692;BME280;22678;52.052;4.242;2023-01-27T04:33:53;102785.28;;;4.72;82.06
36692;BME280;22678;52.052;4.242;2023-01-27T04:36:19;102788.88;;;4.74;82.30
36692;BME280;22678;52.052;4.242;2023-01-27T04:38:44;102784.31;;;4.70;82.20
36692;BME280;22678;52.052;4.242;2023-01-27T04:41:10;102781.00;;;4.55;82.28
36692;BME280;22678;52.052;4.242;2023-01-27T04:43:35;102767.72;;;4.50;82.30
36692;BME280;22678;52.052;4.242;2023-01-27T04:46:01;102798.69;;;4.62;82.00
36692;BME280;22678;52.052;4.242;2023-01-27T04:48:26;102721.91;;;4.18;82.13
36692;BME280;22678;52.052;4.242;2023-01-27T04:50:51;102784.72;;;4.60;81.96
36692;BME280;22678;52.052;4.242;2023-01-27T04:53:17;102800.63;;;4.66;82.17
36692;BME280;22678;52.052;4.242;2023-01-27T04:55:46;102806.59;;;4.64;82.48
36692;BME280;22678;52.052;4.242;2023-01-27T04:58:13;102794.31;;;4.61;82.42
36692;BME280;22678;52.052;4.242;2023-01-27T05:00:40;102801.22;;;4.61;82.74
36692;BME280;22678;52.052;4.242;2023-01-27T05:03:06;102796.16;;;4.64;82.84
36692;BME280;22678;52.052;4.242;2023-01-27T05:05:33;102814.66;;;4.68;82.47
36692;BME280;22678;52.052;4.242;2023-01-27T05:08:06;102809.75;;;4.56;82.19
36692;BME280;22678;52.052;4.242;2023-01-27T05:10:32;102810.63;;;4.57;81.97
36692;BME280;22678;52.052;4.242;2023-01-27T05:12:57;102817.00;;;4.64;82.16
36692;BME280;22678;52.052;4.242;2023-01-27T05:15:24;102819.78;;;4.67;81.41
36692;BME280;22678;52.052;4.242;2023-01-27T05:17:49;102823.13;;;4.64;81.29
36692;BME280;22678;52.052;4.242;2023-01-27T05:20:15;102831.84;;;4.65;81.48
36692;BME280;22678;52.052;4.242;2023-01-27T05:22:40;102810.78;;;4.60;80.88
36692;BME280;22678;52.052;4.242;2023-01-27T05:25:07;102806.06;;;4.53;80.80
36692;BME280;22678;52.052;4.242;2023-01-27T05:27:32;102817.78;;;4.61;80.23
36692;BME280;22678;52.052;4.242;2023-01-27T05:29:57;102837.78;;;4.62;80.48
36692;BME280;22678;52.052;4.242;2023-01-27T05:32:23;102825.53;;;4.60;79.77
36692;BME280;22678;52.052;4.242;2023-01-27T05:34:48;102813.75;;;4.50;79.77
36692;BME280;22678;52.052;4.242;2023-01-27T05:37:13;102827.13;;;4.57;79.37
36692;BME280;22678;52.052;4.242;2023-01-27T05:39:39;102818.81;;;4.47;79.02
36692;BME280;22678;52.052;4.242;2023-01-27T05:42:04;102829.53;;;4.53;78.70
36692;BME280;22678;52.052;4.242;2023-01-27T05:44:29;102828.06;;;4.58;79.23
36692;BME280;22678;52.052;4.242;2023-01-27T05:46:55;102822.78;;;4.56;79.18
36692;BME280;22678;52.052;4.242;2023-01-27T05:49:20;102833.13;;;4.55;79.19
36692;BME280;22678;52.052;4.242;2023-01-27T05:51:46;102840.38;;;4.62;78.95
36692;BME280;22678;52.052;4.242;2023-01-27T05:54:11;102835.66;;;4.53;78.75
36692;BME280;22678;52.052;4.242;2023-01-27T05:56:37;102825.13;;;4.52;78.80
36692;BME280;22678;52.052;4.242;2023-01-27T05:59:03;102828.66;;;4.52;78.37
36692;BME280;22678;52.052;4.242;2023-01-27T06:01:30;102837.50;;;4.56;78.52
36692;BME280;22678;52.052;4.242;2023-01-27T06:03:56;102837.56;;;4.57;78.42
36692;BME280;22678;52.052;4.242;2023-01-27T06:06:23;102847.53;;;4.66;78.30
36692;BME280;22678;52.052;4.242;2023-01-27T06:08:49;102838.47;;;4.58;77.88
36692;BME280;22678;52.052;4.242;2023-01-27T06:11:16;102857.97;;;4.66;77.54
36692;BME280;22678;52.052;4.242;2023-01-27T06:13:43;102847.09;;;4.57;77.25
36692;BME280;22678;52.052;4.242;2023-01-27T06:16:11;102837.56;;;4.57;76.15
36692;BME280;22678;52.052;4.242;2023-01-27T06:18:38;102854.78;;;4.54;76.04
36692;BME280;22678;52.052;4.242;2023-01-27T06:21:05;102861.25;;;4.62;76.25
36692;BME280;22678;52.052;4.242;2023-01-27T06:23:31;102846.81;;;4.51;75.79
36692;BME280;22678;52.052;4.242;2023-01-27T06:26:02;102863.63;;;4.57;75.71
36692;BME280;22678;52.052;4.242;2023-01-27T06:28:28;102870.63;;;4.59;75.37
36692;BME280;22678;52.052;4.242;2023-01-27T06:30:54;102850.06;;;4.47;75.05
36692;BME280;22678;52.052;4.242;2023-01-27T06:33:20;102874.03;;;4.57;75.07
36692;BME280;22678;52.052;4.242;2023-01-27T06:35:45;102870.47;;;4.55;75.06
36692;BME280;22678;52.052;4.242;2023-01-27T06:38:12;102889.75;;;4.59;74.36
36692;BME280;22678;52.052;4.242;2023-01-27T06:40:39;102878.09;;;4.51;74.07
36692;BME280;22678;52.052;4.242;2023-01-27T06:43:10;102887.00;;;4.56;73.82
36692;BME280;22678;52.052;4.242;2023-01-27T06:45:36;102884.91;;;4.49;73.83
36692;BME280;22678;52.052;4.242;2023-01-27T06:48:02;102889.22;;;4.48;73.23
36692;BME280;22678;52.052;4.242;2023-01-27T06:50:28;102880.69;;;4.51;72.99
36692;BME280;22678;52.052;4.242;2023-01-27T06:53:01;102886.69;;;4.50;72.98
36692;BME280;22678;52.052;4.242;2023-01-27T06:55:27;102877.78;;;4.45;72.44
36692;BME280;22678;52.052;4.242;2023-01-27T06:57:53;102884.91;;;4.49;72.48
36692;BME280;22678;52.052;4.242;2023-01-27T07:00:19;102881.94;;;4.41;72.28
36692;BME280;22678;52.052;4.242;2023-01-27T07:02:44;102882.81;;;4.42;72.49
36692;BME280;22678;52.052;4.242;2023-01-27T07:05:10;102881.03;;;4.41;72.16
36692;BME280;22678;52.052;4.242;2023-01-27T07:07:36;102877.16;;;4.32;72.27
36692;BME280;22678;52.052;4.242;2023-01-27T07:10:02;102880.66;;;4.33;72.46
36692;BME280;22678;52.052;4.242;2023-01-27T07:12:28;102880.75;;;4.34;72.58
36692;BME280;22678;52.052;4.242;2023-01-27T07:14:53;102884.81;;;4.29;72.54
36692;BME280;22678;52.052;4.242;2023-01-27T07:17:19;102885.38;;;4.24;72.30
36692;BME280;22678;52.052;4.242;2023-01-27T07:19:44;102889.63;;;4.21;71.77
36692;BME280;22678;52.052;4.242;2023-01-27T07:22:09;102897.53;;;4.23;72.10
36692;BME280;22678;52.052;4.242;2023-01-27T07:24:34;102883.22;;;4.15;72.27
36692;BME280;22678;52.052;4.242;2023-01-27T07:27:00;102890.06;;;4.13;72.37
36692;BME280;22678;52.052;4.242;2023-01-27T07:29:25;102899.00;;;4.18;72.16
36692;BME280;22678;52.052;4.242;2023-01-27T07:31:51;102906.00;;;4.19;72.26
36692;BME280;22678;52.052;4.242;2023-01-27T07:34:16;102918.22;;;4.20;72.26
36692;BME280;22678;52.052;4.242;2023-01-27T07:36:41;102908.44;;;4.16;72.45
36692;BME280;22678;52.052;4.242;2023-01-27T07:39:07;102908.28;;;4.13;72.86
36692;BME280;22678;52.052;4.242;2023-01-27T07:41:32;102924.22;;;4.19;72.58
36692;BME280;22678;52.052;4.242;2023-01-27T07:43:57;102911.06;;;4.16;72.77
36692;BME280;22678;52.052;4.242;2023-01-27T07:46:23;102934.81;;;4.22;73.05
36692;BME280;22678;52.052;4.242;2023-01-27T07:48:48;102930.09;;;4.15;73.19
36692;BME280;22678;52.052;4.242;2023-01-27T07:51:14;102932.69;;;4.15;72.96
36692;BME280;22678;52.052;4.242;2023-01-27T07:53:40;102944.09;;;4.17;73.59
36692;BME280;22678;52.052;4.242;2023-01-27T07:56:07;102945.88;;;4.18;73.26
36692;BME280;22678;52.052;4.242;2023-01-27T07:58:40;102949.22;;;4.15;73.63
36692;BME280;22678;52.052;4.242;2023-01-27T08:01:06;102936.63;;;4.07;73.62
36692;BME280;22678;52.052;4.242;2023-01-27T08:03:32;102956.03;;;4.13;73.72
36692;BME280;22678;52.052;4.242;2023-01-27T08:05:57;102939.06;;;4.03;73.59
36692;BME280;22678;52.052;4.242;2023-01-27T08:08:23;102954.16;;;4.11;73.37
36692;BME280;22678;52.052;4.242;2023-01-27T08:10:48;102948.00;;;4.09;73.54
36692;BME280;22678;52.052;4.242;2023-01-27T08:13:15;102960.28;;;4.11;73.50
36692;BME280;22678;52.052;4.242;2023-01-27T08:15:41;102951.56;;;4.11;73.14
36692;BME280;22678;52.052;4.242;2023-01-27T08:18:06;102950.59;;;4.09;73.43
36692;BME280;22678;52.052;4.242;2023-01-27T08:20:31;102962.25;;;4.15;73.37
36692;BME280;22678;52.052;4.242;2023-01-27T08:22:57;102964.25;;;4.21;73.49
36692;BME280;22678;52.052;4.242;2023-01-27T08:25:22;102960.69;;;4.19;73.59
36692;BME280;22678;52.052;4.242;2023-01-27T08:27:50;102964.25;;;4.21;73.46
36692;BME280;22678;52.052;4.242;2023-01-27T08:30:15;102958.09;;;4.19;73.19
36692;BME280;22678;52.052;4.242;2023-01-27T08:32:41;102931.91;;;3.99;73.50
36692;BME280;22678;52.052;4.242;2023-01-27T08:35:06;102963.28;;;4.19;73.69
36692;BME280;22678;52.052;4.242;2023-01-27T08:37:32;102936.63;;;4.07;73.30
36692;BME280;22678;52.052;4.242;2023-01-27T08:39:57;102959.81;;;4.18;73.65
36692;BME280;22678;52.052;4.242;2023-01-27T08:42:22;102947.13;;;4.08;73.94
36692;BME280;22678;52.052;4.242;2023-01-27T08:44:48;102964.94;;;4.17;73.72
36692;BME280;22678;52.052;4.242;2023-01-27T08:47:13;102953.38;;;4.12;74.25
36692;BME280;22678;52.052;4.242;2023-01-27T08:49:39;102954.84;;;4.07;73.97
36692;BME280;22678;52.052;4.242;2023-01-27T08:52:04;102954.69;;;4.03;74.01
36692;BME280;22678;52.052;4.242;2023-01-27T08:54:30;102963.47;;;4.06;74.10
36692;BME280;22678;52.052;4.242;2023-01-27T08:56:55;102969.47;;;4.04;73.96
36692;BME280;22678;52.052;4.242;2023-01-27T08:59:20;102967.44;;;3.99;74.21
36692;BME280;22678;52.052;4.242;2023-01-27T09:01:46;102964.75;;;3.97;74.31
36692;BME280;22678;52.052;4.242;2023-01-27T09:04:12;102974.28;;;3.97;74.10
36692;BME280;22678;52.052;4.242;2023-01-27T09:06:37;102974.84;;;3.91;73.67
36692;BME280;22678;52.052;4.242;2023-01-27T09:09:03;102965.91;;;3.86;73.86
36692;BME280;22678;52.052;4.242;2023-01-27T09:11:36;102978.28;;;3.90;73.66
36692;BME280;22678;52.052;4.242;2023-01-27T09:14:02;102983.72;;;3.95;73.42
36692;BME280;22678;52.052;4.242;2023-01-27T09:16:27;102971.28;;;3.89;73.65
36692;BME280;22678;52.052;4.242;2023-01-27T09:18:53;102998.59;;;3.97;73.32
36692;BME280;22678;52.052;4.242;2023-01-27T09:21:19;102984.94;;;4.01;73.36
36692;BME280;22678;52.052;4.242;2023-01-27T09:23:47;102989.59;;;4.07;72.85
36692;BME280;22678;52.052;4.242;2023-01-27T09:26:13;102983.50;;;4.07;72.47
36692;BME280;22678;52.052;4.242;2023-01-27T09:28:38;102989.66;;;4.09;72.43
36692;BME280;22678;52.052;4.242;2023-01-27T09:31:03;102994.22;;;4.13;72.02
36692;BME280;22678;52.052;4.242;2023-01-27T09:33:29;102986.50;;;4.14;71.86
36692;BME280;22678;52.052;4.242;2023-01-27T09:36:04;102994.06;;;4.10;71.76
36692;BME280;22678;52.052;4.242;2023-01-27T09:38:33;102995.09;;;4.13;71.60
36692;BME280;22678;52.052;4.242;2023-01-27T09:41:09;103002.28;;;4.17;71.59
36692;BME280;22678;52.052;4.242;2023-01-27T10:04:55;102995.00;;;4.28;68.74
36692;BME280;22678;52.052;4.242;2023-01-27T10:07:49;102999.25;;;4.26;68.54
36692;BME280;22678;52.052;4.242;2023-01-27T10:10:30;102998.47;;;4.27;68.81
36692;BME280;22678;52.052;4.242;2023-01-27T10:13:16;103007.47;;;4.34;69.00
36692;BME280;22678;52.052;4.242;2023-01-27T10:24:11;102991.56;;;5.70;66.49
36692;BME280;22678;52.052;4.242;2023-01-27T10:26:51;102997.47;;;6.23;64.47
36692;BME280;22678;52.052;4.242;2023-01-27T10:29:44;102990.59;;;6.66;62.90
36692;BME280;22678;52.052;4.242;2023-01-27T10:32:24;102995.06;;;6.90;62.06
36692;BME280;22678;52.052;4.242;2023-01-27T10:45:49;102996.81;;;6.48;62.07
36692;BME280;22678;52.052;4.242;2023-01-27T10:50:56;102974.81;;;6.43;62.63
36692;BME280;22678;52.052;4.242;2023-01-27T10:53:31;102986.28;;;6.47;62.42
36692;BME280;22678;52.052;4.242;2023-01-27T10:56:11;102975.50;;;6.39;62.45
36692;BME280;22678;52.052;4.242;2023-01-27T11:01:45;102962.06;;;6.51;62.36
36692;BME280;22678;52.052;4.242;2023-01-27T11:04:18;102973.03;;;6.63;61.69
36692;BME280;22678;52.052;4.242;2023-01-27T11:06:48;102975.66;;;6.63;61.81
36692;BME280;22678;52.052;4.242;2023-01-27T11:11:50;102974.22;;;6.70;61.77
36692;BME280;22678;52.052;4.242;2023-01-27T11:14:24;102970.28;;;6.81;61.99
36692;BME280;22678;52.052;4.242;2023-01-27T11:17:13;102988.28;;;6.95;61.61
36692;BME280;22678;52.052;4.242;2023-01-27T11:19:45;102982.41;;;7.00;61.30
36692;BME280;22678;52.052;4.242;2023-01-27T11:22:19;102970.63;;;6.89;61.55
36692;BME280;22678;52.052;4.242;2023-01-27T11:24:51;102972.47;;;6.92;61.38
36692;BME280;22678;52.052;4.242;2023-01-27T11:27:30;102982.91;;;6.92;61.43
36692;BME280;22678;52.052;4.242;2023-01-27T11:30:01;102972.16;;;6.84;61.86
36692;BME280;22678;52.052;4.242;2023-01-27T11:32:51;102964.94;;;6.78;61.73
36692;BME280;22678;52.052;4.242;2023-01-27T11:35:21;102960.34;;;6.73;61.88
36692;BME280;22678;52.052;4.242;2023-01-27T11:37:48;102968.41;;;6.77;62.04
36692;BME280;22678;52.052;4.242;2023-01-27T11:43:14;102949.31;;;7.01;61.67
36692;BME280;22678;52.052;4.242;2023-01-27T11:45:41;102937.00;;;6.98;61.49
36692;BME280;22678;52.052;4.242;2023-01-27T11:48:11;102943.56;;;6.89;61.40
36692;BME280;22678;52.052;4.242;2023-01-27T11:50:40;102948.69;;;6.86;61.35
36692;BME280;22678;52.052;4.242;2023-01-27T11:53:20;102946.19;;;6.89;61.51
36692;BME280;22678;52.052;4.242;2023-01-27T11:55:50;102942.75;;;6.90;61.32
36692;BME280;22678;52.052;4.242;2023-01-27T11:58:30;102940.94;;;6.89;61.07
36692;BME280;22678;52.052;4.242;2023-01-27T12:00:59;102937.75;;;6.96;61.26
36692;BME280;22678;52.052;4.242;2023-01-27T12:06:04;102939.31;;;7.13;61.45
36692;BME280;22678;52.052;4.242;2023-01-27T12:11:22;102935.88;;;7.37;61.08
36692;BME280;22678;52.052;4.242;2023-01-27T12:13:52;102929.81;;;7.38;60.33
36692;BME280;22678;52.052;4.242;2023-01-27T12:16:19;102923.56;;;7.34;60.51
36692;BME280;22678;52.052;4.242;2023-01-27T12:18:55;102927.84;;;7.32;60.65
36692;BME280;22678;52.052;4.242;2023-01-27T12:21:34;102928.84;;;7.13;60.71
36692;BME280;22678;52.052;4.242;2023-01-27T12:24:00;102922.88;;;6.95;61.33
36692;BME280;22678;52.052;4.242;2023-01-27T12:26:38;102919.31;;;6.93;61.39
36692;BME280;22678;52.052;4.242;2023-01-27T12:29:18;102923.50;;;6.88;61.71
36692;BME280;22678;52.052;4.242;2023-01-27T12:31:47;102922.09;;;6.75;61.52
36692;BME280;22678;52.052;4.242;2023-01-27T12:34:32;102917.38;;;6.66;62.03
36692;BME280;22678;52.052;4.242;2023-01-27T12:36:59;102925.09;;;6.63;62.02
36692;BME280;22678;52.052;4.242;2023-01-27T12:39:39;102924.00;;;6.58;62.63
36692;BME280;22678;52.052;4.242;2023-01-27T12:42:05;102915.91;;;6.52;62.81
36692;BME280;22678;52.052;4.242;2023-01-27T12:44:40;102906.88;;;6.43;62.81
36692;BME280;22678;52.052;4.242;2023-01-27T12:47:27;102916.59;;;6.47;63.27
36692;BME280;22678;52.052;4.242;2023-01-27T12:50:21;102916.47;;;6.44;63.37
36692;BME280;22678;52.052;4.242;2023-01-27T12:55:29;102916.22;;;6.38;63.76
36692;BME280;22678;52.052;4.242;2023-01-27T12:57:55;102911.13;;;6.41;63.77
36692;BME280;22678;52.052;4.242;2023-01-27T13:00:21;102914.56;;;6.40;64.02
36692;BME280;22678;52.052;4.242;2023-01-27T13:02:46;102904.81;;;6.36;63.99
36692;BME280;22678;52.052;4.242;2023-01-27T13:05:14;102908.00;;;6.29;63.99
36692;BME280;22678;52.052;4.242;2023-01-27T13:07:46;102912.38;;;6.30;63.97
36692;BME280;22678;52.052;4.242;2023-01-27T13:10:20;102887.53;;;6.19;64.16
36692;BME280;22678;52.052;4.242;2023-01-27T13:15:15;102908.81;;;6.28;64.06
36692;BME280;22678;52.052;4.242;2023-01-27T13:17:49;102899.91;;;6.23;64.29
36692;BME280;22678;52.052;4.242;2023-01-27T13:23:00;102903.28;;;6.20;64.62
36692;BME280;22678;52.052;4.242;2023-01-27T13:25:36;102902.94;;;6.12;64.83
36692;BME280;22678;52.052;4.242;2023-01-27T13:28:06;102902.94;;;6.12;64.71
36692;BME280;22678;52.052;4.242;2023-01-27T13:30:40;102894.81;;;6.06;64.84
36692;BME280;22678;52.052;4.242;2023-01-27T13:36:11;102908.84;;;6.08;64.76
36692;BME280;22678;52.052;4.242;2023-01-27T13:38:50;102906.94;;;6.04;64.93
36692;BME280;22678;52.052;4.242;2023-01-27T13:41:26;102910.28;;;6.02;65.20
36692;BME280;22678;52.052;4.242;2023-01-27T13:44:16;102913.81;;;6.02;65.43
36692;BME280;22678;52.052;4.242;2023-01-27T13:46:46;102910.88;;;5.96;65.50
36692;BME280;22678;52.052;4.242;2023-01-27T13:49:28;102903.75;;;5.92;65.44
36692;BME280;22678;52.052;4.242;2023-01-27T13:51:54;102910.00;;;5.95;65.61
36692;BME280;22678;52.052;4.242;2023-01-27T13:54:19;102919.56;;;5.95;65.28
36692;BME280;22678;52.052;4.242;2023-01-27T13:59:34;102929.16;;;5.96;65.55
36692;BME280;22678;52.052;4.242;2023-01-27T14:10:39;102917.78;;;5.74;65.76
36692;BME280;22678;52.052;4.242;2023-01-27T14:15:57;102919.47;;;5.74;66.09
36692;BME280;22678;52.052;4.242;2023-01-27T14:18:34;102911.31;;;5.66;66.26
36692;BME280;22678;52.052;4.242;2023-01-27T14:21:26;102920.25;;;5.71;66.34
36692;BME280;22678;52.052;4.242;2023-01-27T14:26:52;102940.38;;;5.74;66.51
36692;BME280;22678;52.052;4.242;2023-01-27T14:29:44;102923.41;;;5.64;66.42
36692;BME280;22678;52.052;4.242;2023-01-27T14:32:49;102929.59;;;5.66;66.57
36692;BME280;22678;52.052;4.242;2023-01-27T14:35:21;102931.38;;;5.67;66.68
36692;BME280;22678;52.052;4.242;2023-01-27T14:38:25;102927.66;;;5.62;66.64
36692;BME280;22678;52.052;4.242;2023-01-27T14:43:40;102928.97;;;5.52;66.40
36692;BME280;22678;52.052;4.242;2023-01-27T14:46:46;102941.22;;;5.55;66.75